Time;durP1;ratioP1;P1;durP2;ratioP2;P2;SDS_P1;SDS_P2;PMS_P1;PMS_P2;Temp;Humidity;BMP_temperature;BMP_pressure;BME280_temperature;BME280_humidity;BME280_pressure;Samples;Min_cycle;Max_cycle;Signal;HPM_P1;HPM_P2
2020/12/12 00:01:01;;;;;;;16.02;12.20;;;4.90;93.10;;;;;;5009851;28;20030;-85
2020/12/12 00:03:28;;;;;;;17.20;12.82;;;4.90;93.10;;;;;;5006197;28;21298;-89
2020/12/12 00:05:54;;;;;;;16.67;12.55;;;4.90;93.10;;;;;;5015845;28;20038;-87
2020/12/12 00:08:20;;;;;;;16.10;12.68;;;4.90;93.10;;;;;;5012349;28;20037;-86
2020/12/12 00:10:48;;;;;;;15.45;12.52;;;4.90;93.10;;;;;;5006823;28;20768;-86
2020/12/12 00:13:15;;;;;;;17.48;12.85;;;5.00;93.20;;;;;;5012629;28;20053;-86
2020/12/12 00:15:43;;;;;;;19.70;14.02;;;5.00;93.10;;;;;;5015988;28;20020;-85
2020/12/12 00:18:11;;;;;;;18.40;13.77;;;5.00;93.10;;;;;;5007940;28;20026;-85
2020/12/12 00:20:37;;;;;;;19.60;15.43;;;4.90;93.10;;;;;;5006072;28;20026;-86
2020/12/12 00:23:03;;;;;;;20.08;15.00;;;4.90;93.10;;;;;;5016596;28;20418;-85
2020/12/12 00:25:29;;;;;;;23.83;17.48;;;4.90;93.10;;;;;;5000023;28;20037;-85
2020/12/12 00:27:55;;;;;;;19.48;15.32;;;5.00;93.20;;;;;;5007561;28;20022;-86
2020/12/12 00:30:21;;;;;;;20.00;15.80;;;4.90;93.20;;;;;;5012934;28;20034;-85
2020/12/12 00:32:47;;;;;;;20.73;15.45;;;4.90;93.20;;;;;;5003704;28;20475;-85
2020/12/12 00:35:17;;;;;;;22.00;17.17;;;4.90;93.20;;;;;;4992692;28;20033;-85
2020/12/12 00:37:48;;;;;;;25.77;18.48;;;5.00;93.20;;;;;;5014363;28;20113;-89
2020/12/12 00:40:50;;;;;;;27.88;20.42;;;4.90;93.20;;;;;;5009198;28;20033;-85
2020/12/12 00:46:26;;;;;;;28.98;20.52;;;5.00;93.20;;;;;;4997965;28;20038;-86
2020/12/12 00:49:33;;;;;;;27.00;18.77;;;4.90;93.20;;;;;;5004977;28;20026;-85
2020/12/12 00:52:10;;;;;;;25.40;18.90;;;4.90;93.30;;;;;;5012081;28;20029;-85
2020/12/12 00:55:17;;;;;;;24.30;18.08;;;4.90;93.50;;;;;;5001920;28;20415;-85
2020/12/12 00:57:54;;;;;;;23.63;17.33;;;5.00;93.30;;;;;;5000266;28;20042;-85
2020/12/12 01:00:22;;;;;;;24.75;18.20;;;5.00;93.30;;;;;;5007421;28;20041;-86
2020/12/12 01:02:53;;;;;;;25.60;19.17;;;5.00;93.30;;;;;;5007528;28;20041;-85
2020/12/12 01:05:42;;;;;;;25.13;18.23;;;5.00;93.30;;;;;;5006397;28;20037;-90
2020/12/12 01:08:08;;;;;;;27.67;19.73;;;5.00;93.30;;;;;;4998357;28;20057;-85
2020/12/12 01:11:02;;;;;;;29.83;21.25;;;5.00;93.30;;;;;;4999827;28;20038;-84
2020/12/12 01:13:32;;;;;;;36.38;24.70;;;5.00;93.30;;;;;;4995826;28;20475;-87
2020/12/12 01:16:07;;;;;;;33.50;23.23;;;5.00;93.30;;;;;;4997885;28;20044;-86
2020/12/12 01:18:53;;;;;;;31.15;22.77;;;5.00;93.40;;;;;;5002285;28;20049;-85
2020/12/12 01:21:44;;;;;;;31.25;22.40;;;4.90;93.40;;;;;;5003702;28;20038;-85
2020/12/12 01:24:11;;;;;;;30.80;21.33;;;5.00;93.40;;;;;;4993741;28;20029;-88
2020/12/12 01:26:45;;;;;;;32.20;23.33;;;5.00;93.40;;;;;;5010466;28;20026;-87
2020/12/12 01:29:10;;;;;;;31.58;22.95;;;5.00;93.40;;;;;;5006932;28;20142;-85
2020/12/12 01:31:36;;;;;;;32.03;21.92;;;5.00;93.40;;;;;;5008074;28;20532;-87
2020/12/12 01:34:04;;;;;;;30.15;22.05;;;5.00;93.40;;;;;;5006131;28;20041;-86
2020/12/12 01:36:30;;;;;;;30.52;21.63;;;5.00;93.50;;;;;;5014467;28;20033;-86
2020/12/12 01:38:59;;;;;;;32.25;22.17;;;5.00;93.50;;;;;;5000844;28;20018;-86
2020/12/12 01:41:24;;;;;;;30.90;21.80;;;5.00;93.50;;;;;;5010258;28;20041;-87
2020/12/12 01:43:53;;;;;;;28.08;19.55;;;5.00;93.50;;;;;;4996027;28;20033;-84
2020/12/12 01:46:41;;;;;;;27.17;20.38;;;5.00;93.50;;;;;;5009856;28;20034;-87
2020/12/12 01:49:07;;;;;;;32.65;22.15;;;5.00;93.50;;;;;;5003496;28;20029;-90
2020/12/12 01:51:35;;;;;;;29.58;20.88;;;5.10;93.50;;;;;;5002613;28;20029;-84
2020/12/12 01:54:13;;;;;;;30.30;22.02;;;5.10;93.50;;;;;;4999266;28;20121;-86
2020/12/12 01:56:39;;;;;;;35.20;23.67;;;5.00;93.40;;;;;;4997121;28;20041;-86
2020/12/12 01:59:04;;;;;;;35.10;24.20;;;5.00;93.50;;;;;;5003753;28;20396;-87
2020/12/12 02:01:37;;;;;;;30.15;21.58;;;5.10;93.50;;;;;;4997989;28;20144;-85
2020/12/12 02:04:06;;;;;;;28.85;20.90;;;5.10;93.60;;;;;;5004991;28;20040;-85
2020/12/12 02:06:44;;;;;;;26.98;20.08;;;5.10;93.50;;;;;;5019305;28;20053;-88
2020/12/12 02:09:13;;;;;;;28.92;21.10;;;5.10;93.50;;;;;;5007780;28;20034;-85
2020/12/12 02:11:40;;;;;;;28.33;20.38;;;5.10;93.50;;;;;;5013168;28;20022;-88
2020/12/12 02:14:09;;;;;;;26.80;19.48;;;5.10;93.60;;;;;;5010579;28;20383;-85
2020/12/12 02:16:54;;;;;;;29.02;20.77;;;5.10;93.60;;;;;;4997256;28;20068;-85
2020/12/12 02:19:20;;;;;;;30.73;22.10;;;5.10;93.50;;;;;;5011792;28;20041;-86
2020/12/12 02:21:51;;;;;;;27.40;20.80;;;5.10;93.50;;;;;;5013215;28;20475;-85
2020/12/12 02:24:16;;;;;;;28.67;21.13;;;5.10;93.60;;;;;;5011965;28;20093;-85
2020/12/12 02:26:42;;;;;;;25.55;18.55;;;5.10;93.60;;;;;;4993891;28;20049;-89
2020/12/12 02:29:11;;;;;;;25.73;19.48;;;5.10;93.60;;;;;;5013986;28;20054;-86
2020/12/12 02:31:40;;;;;;;26.02;18.08;;;5.10;93.60;;;;;;5013882;28;20026;-89
2020/12/12 02:34:06;;;;;;;25.85;19.10;;;5.10;93.60;;;;;;5003142;28;20038;-84
2020/12/12 02:36:43;;;;;;;25.13;18.45;;;5.10;93.60;;;;;;5020034;28;20033;-90
2020/12/12 02:39:13;;;;;;;24.67;18.17;;;5.10;93.60;;;;;;5006623;28;20022;-86
2020/12/12 02:41:39;;;;;;;23.55;17.50;;;5.10;93.60;;;;;;5014638;28;20030;-86
2020/12/12 02:44:05;;;;;;;23.45;17.65;;;5.20;93.70;;;;;;5017550;28;20037;-86
2020/12/12 02:46:31;;;;;;;26.67;19.33;;;5.10;93.60;;;;;;5007885;28;20117;-85
2020/12/12 02:49:01;;;;;;;26.17;18.70;;;5.10;93.60;;;;;;5009750;28;20022;-85
2020/12/12 02:51:29;;;;;;;26.33;19.08;;;5.20;93.70;;;;;;5006606;28;20029;-86
2020/12/12 02:53:55;;;;;;;26.58;18.80;;;5.20;93.70;;;;;;5002747;28;20152;-88
2020/12/12 02:56:21;;;;;;;22.13;17.30;;;5.10;93.60;;;;;;5008404;28;20057;-85
2020/12/12 02:58:49;;;;;;;24.92;18.17;;;5.10;93.60;;;;;;5006365;28;20029;-86
2020/12/12 03:01:15;;;;;;;22.38;17.00;;;5.10;93.60;;;;;;5010803;28;20064;-86
2020/12/12 03:03:43;;;;;;;22.98;17.42;;;5.20;93.70;;;;;;4995834;28;20041;-85
2020/12/12 03:06:14;;;;;;;23.00;17.48;;;5.20;93.70;;;;;;5013538;28;20049;-86
2020/12/12 03:08:40;;;;;;;24.45;17.52;;;5.20;93.70;;;;;;4986564;28;20026;-85
2020/12/12 03:11:05;;;;;;;24.80;18.25;;;5.20;93.70;;;;;;5002230;28;20029;-89
2020/12/12 03:13:33;;;;;;;28.90;19.38;;;5.20;93.70;;;;;;5012133;28;20468;-84
2020/12/12 03:15:59;;;;;;;26.80;18.38;;;5.20;93.60;;;;;;5005400;28;20037;-86
2020/12/12 03:18:25;;;;;;;26.27;18.95;;;5.20;93.60;;;;;;5010329;28;20369;-87
2020/12/12 03:21:00;;;;;;;23.38;17.58;;;5.20;93.60;;;;;;5004808;28;20514;-85
2020/12/12 03:23:26;;;;;;;26.60;18.05;;;5.20;93.70;;;;;;5012740;28;20035;-85
2020/12/12 03:25:55;;;;;;;25.17;18.25;;;5.20;93.70;;;;;;5016706;28;20056;-87
2020/12/12 03:28:23;;;;;;;25.13;17.27;;;5.20;93.70;;;;;;5016759;28;20030;-86
2020/12/12 03:30:49;;;;;;;24.55;17.58;;;5.20;93.70;;;;;;5016760;28;20030;-86
2020/12/12 03:33:15;;;;;;;25.75;18.58;;;5.20;93.60;;;;;;5016504;28;20442;-87
2020/12/12 03:35:48;;;;;;;28.10;20.02;;;5.20;93.60;;;;;;5013223;28;20026;-85
2020/12/12 03:38:14;;;;;;;25.50;18.27;;;5.20;93.70;;;;;;5014704;28;20434;-85
2020/12/12 03:40:40;;;;;;;29.83;20.58;;;5.20;93.70;;;;;;5013696;28;20077;-85
2020/12/12 03:43:07;;;;;;;25.10;18.75;;;5.20;93.70;;;;;;5002580;28;20038;-86
2020/12/12 03:45:35;;;;;;;26.77;20.77;;;5.20;93.70;;;;;;5012996;28;20026;-84
2020/12/12 03:48:01;;;;;;;26.92;19.60;;;5.20;93.70;;;;;;5014978;28;20034;-86
2020/12/12 03:50:30;;;;;;;28.73;19.48;;;5.20;93.70;;;;;;5018667;28;20029;-87
2020/12/12 03:52:56;;;;;;;25.60;18.38;;;5.30;93.70;;;;;;5019541;28;20033;-86
2020/12/12 03:55:31;;;;;;;25.77;18.05;;;5.30;93.70;;;;;;5006738;28;20025;-92
2020/12/12 03:57:57;;;;;;;25.00;17.77;;;5.30;93.70;;;;;;5001344;28;20112;-86
2020/12/12 04:00:23;;;;;;;25.80;19.33;;;5.30;93.70;;;;;;5019372;28;20081;-84
2020/12/12 04:02:49;;;;;;;29.15;20.95;;;5.30;93.70;;;;;;5015460;28;20064;-86
2020/12/12 04:05:20;;;;;;;28.05;20.35;;;5.30;93.70;;;;;;5014895;28;20072;-86
2020/12/12 04:07:50;;;;;;;25.92;19.88;;;5.30;93.70;;;;;;4991637;28;20022;-87
2020/12/12 04:10:18;;;;;;;29.75;19.85;;;5.30;93.70;;;;;;5013480;28;20026;-86
2020/12/12 04:12:44;;;;;;;27.50;20.08;;;5.30;93.70;;;;;;5018012;28;20173;-85
2020/12/12 04:15:10;;;;;;;26.70;19.27;;;5.30;93.80;;;;;;5019597;28;20044;-85
2020/12/12 04:17:36;;;;;;;27.77;20.77;;;5.30;93.80;;;;;;5015129;28;20464;-86
2020/12/12 04:20:02;;;;;;;29.63;21.70;;;5.30;93.70;;;;;;5015903;28;20487;-84
2020/12/12 04:22:28;;;;;;;28.90;20.13;;;5.30;93.80;;;;;;5014243;28;20094;-85
2020/12/12 04:24:54;;;;;;;27.05;19.00;;;5.30;93.80;;;;;;5004664;28;20054;-87
2020/12/12 04:27:22;;;;;;;24.75;17.75;;;5.30;93.80;;;;;;5013939;28;20033;-86
2020/12/12 04:29:48;;;;;;;25.50;18.65;;;5.30;93.80;;;;;;5016127;28;20057;-86
2020/12/12 04:32:16;;;;;;;23.35;16.80;;;5.30;93.80;;;;;;5009720;28;20543;-86
2020/12/12 04:34:44;;;;;;;30.52;20.75;;;5.30;93.80;;;;;;4993520;28;20026;-85
2020/12/12 04:37:10;;;;;;;25.08;18.40;;;5.30;93.80;;;;;;5012007;28;20030;-89
2020/12/12 04:39:38;;;;;;;24.45;18.75;;;5.30;93.80;;;;;;5008121;28;20137;-88
2020/12/12 04:42:22;;;;;;;23.20;17.95;;;5.30;93.80;;;;;;5011638;28;20461;-85
2020/12/12 04:44:48;;;;;;;25.13;17.90;;;5.30;93.80;;;;;;4990490;28;20057;-85
2020/12/12 04:47:18;;;;;;;25.02;18.30;;;5.40;93.80;;;;;;5009252;28;20022;-86
2020/12/12 04:49:46;;;;;;;24.05;17.67;;;5.40;93.80;;;;;;5016010;28;20467;-85
2020/12/12 04:52:24;;;;;;;24.90;18.20;;;5.30;93.80;;;;;;5018466;28;20107;-84
2020/12/12 04:54:53;;;;;;;24.15;18.20;;;5.40;93.80;;;;;;5013247;28;20034;-85
2020/12/12 04:57:19;;;;;;;25.35;18.17;;;5.30;93.80;;;;;;5010682;28;20084;-85
2020/12/12 04:59:53;;;;;;;25.67;18.35;;;5.40;93.80;;;;;;4999924;28;20042;-85
2020/12/12 05:02:22;;;;;;;23.30;17.33;;;5.40;93.80;;;;;;4995879;28;20527;-86
2020/12/12 05:04:50;;;;;;;22.33;16.33;;;5.40;93.80;;;;;;5011773;28;20061;-84
2020/12/12 05:07:23;;;;;;;21.60;15.88;;;5.40;93.80;;;;;;4997773;28;20037;-86
2020/12/12 05:09:48;;;;;;;21.58;16.63;;;5.40;93.80;;;;;;5011836;28;20106;-87
2020/12/12 05:12:15;;;;;;;22.30;16.80;;;5.40;93.80;;;;;;5012278;28;20034;-85
2020/12/12 05:14:48;;;;;;;24.05;17.85;;;5.40;93.80;;;;;;5007162;28;20025;-85
2020/12/12 05:17:16;;;;;;;21.65;16.58;;;5.40;93.80;;;;;;5031169;28;20079;-85
2020/12/12 05:19:49;;;;;;;22.13;16.63;;;5.40;93.80;;;;;;5004001;28;20122;-85
2020/12/12 05:22:37;;;;;;;21.52;16.05;;;5.40;93.80;;;;;;5009684;28;20593;-85
2020/12/12 05:25:09;;;;;;;20.85;15.48;;;5.40;93.80;;;;;;5009317;28;20464;-85
2020/12/12 05:27:38;;;;;;;;;;;5.50;93.80;;;;;;4999096;28;20724;-85
2020/12/12 05:30:06;;;;;;;21.20;15.27;;;5.40;93.80;;;;;;5039745;28;19913;-85
2020/12/12 05:32:31;;;;;;;19.27;14.77;;;5.40;93.80;;;;;;5012655;28;20034;-85
2020/12/12 05:35:02;;;;;;;20.05;13.90;;;5.40;93.80;;;;;;4997940;28;20040;-84
2020/12/12 05:37:38;;;;;;;19.88;14.88;;;5.40;93.80;;;;;;5012459;28;20468;-86
2020/12/12 05:40:04;;;;;;;20.80;14.95;;;5.40;93.80;;;;;;5038916;28;20033;-85
2020/12/12 05:42:33;;;;;;;19.55;14.27;;;5.40;93.80;;;;;;5007770;28;20026;-90
2020/12/12 05:45:02;;;;;;;19.35;13.98;;;5.50;94.10;;;;;;4986254;28;20112;-89
2020/12/12 05:47:29;;;;;;;18.13;14.02;;;5.40;93.80;;;;;;5004886;28;20030;-85
2020/12/12 05:49:54;;;;;;;17.67;13.23;;;5.50;93.80;;;;;;5010293;28;20136;-85
2020/12/12 05:52:21;;;;;;;16.67;13.15;;;5.50;93.80;;;;;;4998323;28;20022;-86
2020/12/12 05:54:51;;;;;;;18.80;13.48;;;5.50;93.80;;;;;;5014487;28;20357;-85
2020/12/12 05:57:20;;;;;;;17.42;13.27;;;5.50;93.80;;;;;;5003770;28;20022;-86
2020/12/12 05:59:48;;;;;;;16.92;13.10;;;5.50;93.80;;;;;;5007264;28;20026;-85
2020/12/12 06:02:16;;;;;;;20.88;13.90;;;5.60;93.80;;;;;;4999875;28;20030;-85
2020/12/12 06:04:52;;;;;;;18.30;13.35;;;5.50;93.80;;;;;;5008087;28;20023;-87
2020/12/12 06:07:29;;;;;;;18.25;13.02;;;5.50;93.80;;;;;;5008830;28;20529;-85
2020/12/12 06:10:04;;;;;;;19.17;12.57;;;5.60;93.80;;;;;;5008616;28;20057;-86
2020/12/12 06:12:30;;;;;;;17.58;12.65;;;5.50;93.80;;;;;;5012400;28;20041;-85
2020/12/12 06:14:58;;;;;;;19.17;13.13;;;5.50;93.80;;;;;;4993290;28;20106;-86
2020/12/12 06:18:02;;;;;;;17.52;12.80;;;5.50;93.80;;;;;;5011766;28;20030;-85
2020/12/12 06:20:30;;;;;;;17.65;12.15;;;5.60;93.80;;;;;;5019876;28;20042;-86
2020/12/12 06:22:57;;;;;;;18.05;12.70;;;5.60;93.80;;;;;;5003917;28;20113;-87
2020/12/12 06:25:23;;;;;;;20.20;12.98;;;5.60;93.70;;;;;;5027999;28;20122;-86
2020/12/12 06:27:54;;;;;;;18.40;12.32;;;5.60;93.70;;;;;;4995190;28;22074;-86
2020/12/12 06:30:22;;;;;;;18.60;12.07;;;5.60;93.70;;;;;;5006651;28;20033;-86
2020/12/12 06:32:48;;;;;;;19.00;11.68;;;5.60;93.70;;;;;;5012239;28;20026;-86
2020/12/12 06:35:14;;;;;;;18.17;12.93;;;5.60;93.70;;;;;;5020086;28;20037;-86
2020/12/12 06:37:40;;;;;;;16.63;12.18;;;5.60;93.70;;;;;;5008687;28;20030;-91
2020/12/12 06:40:19;;;;;;;16.88;11.88;;;5.60;93.70;;;;;;5007790;28;20502;-86
2020/12/12 06:42:48;;;;;;;15.35;11.35;;;5.60;93.70;;;;;;5000034;28;20072;-88
2020/12/12 06:45:17;;;;;;;17.00;11.50;;;5.70;93.70;;;;;;5010319;28;20506;-86
2020/12/12 06:47:53;;;;;;;19.75;12.38;;;5.70;93.70;;;;;;5008255;28;20129;-89
2020/12/12 06:50:21;;;;;;;16.33;11.40;;;5.70;93.70;;;;;;5012770;28;20081;-87
2020/12/12 06:52:48;;;;;;;18.40;11.45;;;5.70;93.70;;;;;;5008902;28;20026;-87
2020/12/12 06:55:16;;;;;;;14.38;10.43;;;5.70;93.70;;;;;;5016378;28;20029;-87
2020/12/12 06:57:43;;;;;;;14.90;10.27;;;5.70;93.70;;;;;;5014705;28;20045;-87
2020/12/12 07:00:19;;;;;;;16.98;11.43;;;5.70;93.60;;;;;;5006345;28;20095;-88
2020/12/12 07:03:07;;;;;;;18.23;11.35;;;5.70;93.60;;;;;;4994309;28;20096;-87
2020/12/12 07:05:36;;;;;;;16.30;11.27;;;5.70;93.60;;;;;;5010696;28;20397;-87
2020/12/12 07:08:06;;;;;;;13.95;11.13;;;5.70;93.60;;;;;;5013348;28;20026;-87
2020/12/12 07:10:46;;;;;;;16.35;10.98;;;5.70;93.60;;;;;;5005418;28;20105;-86
2020/12/12 07:13:13;;;;;;;16.20;11.70;;;5.70;93.60;;;;;;5010721;28;20030;-88
2020/12/12 07:15:39;;;;;;;17.23;11.48;;;5.70;93.60;;;;;;5009333;28;20392;-87
2020/12/12 07:18:08;;;;;;;15.50;10.68;;;5.70;93.60;;;;;;5008096;28;20034;-87
2020/12/12 07:20:42;;;;;;;17.02;11.25;;;5.80;93.90;;;;;;5009988;28;20115;-86
2020/12/12 07:23:19;;;;;;;15.38;10.90;;;5.70;93.60;;;;;;5012294;28;20165;-86
2020/12/12 07:25:45;;;;;;;15.10;11.05;;;5.80;93.60;;;;;;5007244;28;20476;-86
2020/12/12 07:28:19;;;;;;;17.58;11.45;;;5.80;93.60;;;;;;5029795;28;20025;-88
2020/12/12 07:30:45;;;;;;;17.08;12.23;;;5.80;93.60;;;;;;5037518;28;20129;-86
2020/12/12 07:33:10;;;;;;;19.85;11.70;;;5.80;93.60;;;;;;5011009;28;20113;-87
2020/12/12 07:35:36;;;;;;;20.45;11.63;;;5.80;93.60;;;;;;5012038;28;20030;-86
2020/12/12 07:38:11;;;;;;;18.38;12.48;;;5.80;93.60;;;;;;5002853;28;20392;-86
2020/12/12 07:40:40;;;;;;;19.83;12.18;;;5.80;93.60;;;;;;5006259;28;20436;-87
2020/12/12 07:43:08;;;;;;;20.83;12.93;;;5.80;93.60;;;;;;5004068;28;20115;-86
2020/12/12 07:48:18;;;;;;;20.88;12.18;;;5.80;93.60;;;;;;4998530;28;20041;-86
2020/12/12 07:50:43;;;;;;;23.25;13.48;;;5.80;93.60;;;;;;4995139;28;20034;-86
2020/12/12 07:53:14;;;;;;;20.88;13.30;;;5.80;93.60;;;;;;5010015;28;20112;-86
2020/12/12 07:55:45;;;;;;;20.23;13.13;;;5.80;93.60;;;;;;5002747;28;20033;-87
2020/12/12 07:58:23;;;;;;;25.65;15.27;;;5.80;93.60;;;;;;5009890;28;20025;-86
2020/12/12 08:01:08;;;;;;;25.02;15.32;;;5.80;93.60;;;;;;4990240;28;20034;-88
2020/12/12 08:03:52;;;;;;;23.65;14.07;;;5.80;93.60;;;;;;5004708;28;20047;-87
2020/12/12 08:06:30;;;;;;;24.85;14.73;;;5.80;93.60;;;;;;5012891;28;20028;-91
2020/12/12 08:09:04;;;;;;;24.85;14.20;;;5.90;93.60;;;;;;4997838;28;20033;-88
2020/12/12 08:11:49;;;;;;;23.52;14.43;;;5.80;93.60;;;;;;5007393;28;20436;-88
2020/12/12 08:14:26;;;;;;;27.38;14.73;;;5.90;93.60;;;;;;5009280;28;20180;-90
2020/12/12 08:17:13;;;;;;;27.50;15.18;;;5.90;93.60;;;;;;4996375;28;20052;-89
2020/12/12 08:19:56;;;;;;;24.60;14.75;;;5.90;93.70;;;;;;5019149;28;20057;-88
2020/12/12 08:22:35;;;;;;;23.90;14.88;;;5.90;93.60;;;;;;5017428;28;20021;-90
2020/12/12 08:25:10;;;;;;;25.00;15.15;;;5.90;93.60;;;;;;5008184;28;20408;-88
2020/12/12 08:27:42;;;;;;;25.45;14.85;;;5.90;93.70;;;;;;5004258;28;20036;-87
2020/12/12 08:30:10;;;;;;;30.20;15.98;;;5.90;93.60;;;;;;5012435;28;20037;-87
2020/12/12 08:32:47;;;;;;;27.95;15.10;;;5.90;93.60;;;;;;5004692;28;20018;-88
2020/12/12 08:35:25;;;;;;;29.00;15.95;;;5.90;93.60;;;;;;4989230;28;20033;-88
2020/12/12 08:37:56;;;;;;;29.23;15.77;;;5.90;93.60;;;;;;5008523;28;20018;-89
2020/12/12 08:43:22;;;;;;;31.88;15.73;;;5.90;93.70;;;;;;4998175;28;20258;-87
2020/12/12 08:46:07;;;;;;;31.48;16.90;;;5.90;93.70;;;;;;5017510;28;20030;-87
2020/12/12 08:48:37;;;;;;;30.75;15.30;;;5.90;93.70;;;;;;5021208;28;20038;-90
2020/12/12 08:51:09;;;;;;;27.80;15.50;;;6.00;93.70;;;;;;5016845;28;20033;-88
2020/12/12 08:53:57;;;;;;;28.85;15.75;;;6.00;93.70;;;;;;4978585;28;20069;-87
2020/12/12 08:56:36;;;;;;;31.42;16.48;;;6.00;93.70;;;;;;5004310;28;20033;-87
2020/12/12 08:59:19;;;;;;;29.10;15.60;;;6.00;93.70;;;;;;5031327;28;20400;-87
2020/12/12 09:01:53;;;;;;;31.10;15.88;;;6.00;93.70;;;;;;5007323;28;20034;-88
2020/12/12 09:04:30;;;;;;;30.63;15.40;;;6.00;93.70;;;;;;5002748;28;20133;-91
2020/12/12 09:07:04;;;;;;;26.90;16.10;;;6.00;93.70;;;;;;5008989;28;20113;-87
2020/12/12 09:09:43;;;;;;;;;;;;;;;;;;;;;
2020/12/12 09:12:15;;;;;;;33.22;16.58;;;6.10;93.80;;;;;;5011664;28;20026;-86
2020/12/12 09:14:55;;;;;;;;;;;;;;;;;;;;;
2020/12/12 09:17:38;;;;;;;26.73;15.82;;;6.10;93.80;;;;;;5003269;28;20034;-88
2020/12/12 09:20:41;;;;;;;39.40;20.33;;;6.10;93.80;;;;;;5035457;28;20074;-91
2020/12/12 09:23:29;;;;;;;32.55;18.48;;;6.10;93.80;;;;;;4982784;28;20034;-89
2020/12/12 09:28:57;;;;;;;30.30;16.40;;;6.10;93.80;;;;;;5005253;28;20498;-87
2020/12/12 09:31:33;;;;;;;27.95;15.88;;;6.10;93.80;;;;;;5014517;28;20033;-87
2020/12/12 09:34:07;;;;;;;34.92;17.02;;;6.20;93.80;;;;;;5004532;28;20026;-87
2020/12/12 09:37:02;;;;;;;30.83;17.48;;;6.20;93.80;;;;;;5014187;28;20116;-87
2020/12/12 09:39:49;;;;;;;;;;;;;;;;;;;;;
2020/12/12 09:42:22;;;;;;;32.45;17.63;;;6.20;93.80;;;;;;5010089;28;20496;-89
2020/12/12 09:44:58;;;;;;;31.75;16.63;;;6.20;93.80;;;;;;4996843;28;20030;-87
2020/12/12 09:47:48;;;;;;;34.47;16.90;;;6.20;93.80;;;;;;5016576;28;20102;-87
2020/12/12 09:50:14;;;;;;;33.28;15.65;;;6.20;93.80;;;;;;4995919;28;20042;-88
2020/12/12 09:52:54;;;;;;;;;;;;;;;;;;;;;
2020/12/12 09:55:43;;;;;;;35.78;16.40;;;6.20;93.80;;;;;;5024057;28;20025;-90
2020/12/12 09:58:32;;;;;;;34.40;16.05;;;6.30;93.80;;;;;;4992557;28;20117;-86
2020/12/12 10:00:58;;;;;;;29.75;15.77;;;6.30;93.80;;;;;;5008879;28;20058;-86
2020/12/12 10:03:31;;;;;;;26.73;15.65;;;6.30;93.80;;;;;;5006096;28;20104;-86
2020/12/12 10:06:21;;;;;;;37.08;16.70;;;6.30;93.90;;;;;;5022774;28;20029;-85
2020/12/12 10:09:07;;;;;;;28.50;15.15;;;6.30;93.80;;;;;;5007624;28;20030;-86
2020/12/12 10:14:31;;;;;;;27.33;15.50;;;6.30;93.80;;;;;;5005377;28;20060;-86
2020/12/12 10:17:04;;;;;;;32.40;16.23;;;6.40;93.90;;;;;;5010985;28;20018;-86
2020/12/12 10:19:53;;;;;;;;;;;;;;;;;;;;;
2020/12/12 10:22:19;;;;;;;35.38;16.65;;;6.40;93.90;;;;;;5014159;28;20029;-88
2020/12/12 10:24:57;;;;;;;;;;;;;;;;;;;;;
2020/12/12 10:27:39;;;;;;;38.58;17.92;;;6.40;93.90;;;;;;5008337;28;20419;-88
2020/12/12 10:30:29;;;;;;;29.55;16.92;;;6.40;93.90;;;;;;5005611;28;20022;-85
2020/12/12 10:33:05;;;;;;;30.20;16.20;;;6.40;93.90;;;;;;5012614;28;20030;-88
2020/12/12 10:35:42;;;;;;;40.08;17.17;;;6.40;93.90;;;;;;5010042;28;20029;-86
2020/12/12 10:38:12;;;;;;;40.40;19.55;;;6.50;93.90;;;;;;5013998;28;20475;-90
2020/12/12 10:43:40;;;;;;;37.53;17.70;;;6.50;93.90;;;;;;4988827;28;20035;-86
2020/12/12 10:46:11;;;;;;;36.60;18.40;;;6.50;93.90;;;;;;4997743;28;20036;-90
2020/12/12 10:48:39;;;;;;;33.53;17.33;;;6.50;93.90;;;;;;5007061;28;20037;-89
2020/12/12 10:51:16;;;;;;;38.30;17.23;;;6.60;94.00;;;;;;5016025;28;20046;-86
2020/12/12 10:53:52;;;;;;;;;;;;;;;;;;;;;
2020/12/12 10:56:23;;;;;;;37.15;16.90;;;6.60;93.90;;;;;;5014610;28;20028;-86
2020/12/12 10:58:51;;;;;;;36.05;17.85;;;6.60;93.90;;;;;;4994330;28;20042;-84
2020/12/12 11:01:20;;;;;;;35.85;18.95;;;6.60;93.90;;;;;;4995245;28;20073;-86
2020/12/12 11:03:49;;;;;;;35.97;17.88;;;6.70;93.90;;;;;;4994001;28;20037;-91
2020/12/12 11:06:20;;;;;;;38.95;18.65;;;6.60;93.90;;;;;;5012642;28;20030;-85
2020/12/12 11:08:51;;;;;;;29.75;16.85;;;6.70;94.00;;;;;;5012565;28;20022;-87
2020/12/12 11:11:31;;;;;;;;;;;;;;;;;;;;;
2020/12/12 11:14:18;;;;;;;31.35;17.80;;;6.70;94.00;;;;;;5013345;28;20112;-87
2020/12/12 11:16:48;;;;;;;39.30;18.15;;;6.70;94.00;;;;;;5000170;28;20037;-87
2020/12/12 11:19:37;;;;;;;36.65;17.83;;;6.70;94.00;;;;;;4998413;28;20050;-87
2020/12/12 11:22:18;;;;;;;29.98;16.85;;;6.70;94.00;;;;;;5007107;28;20064;-87
2020/12/12 11:24:57;;;;;;;30.73;18.60;;;6.80;94.00;;;;;;4988075;28;20097;-86
2020/12/12 11:27:49;;;;;;;31.15;18.23;;;6.80;94.00;;;;;;5026174;28;20113;-86
2020/12/12 11:30:19;;;;;;;30.85;17.95;;;6.80;94.00;;;;;;5008011;28;20077;-88
2020/12/12 11:33:04;;;;;;;28.48;17.73;;;6.80;94.00;;;;;;5013538;28;20125;-89
2020/12/12 11:35:45;;;;;;;34.00;17.95;;;6.80;94.00;;;;;;5001366;28;20124;-90
2020/12/12 11:38:41;;;;;;;;;;;;;;;;;;;;;
2020/12/12 11:41:54;;;;;;;;;;;;;;;;;;;;;
2020/12/12 11:47:34;;;;;;;28.88;16.92;;;6.90;94.00;;;;;;5012480;28;20483;-88
2020/12/12 11:50:12;;;;;;;26.85;17.13;;;6.90;94.00;;;;;;5002391;28;20030;-89
2020/12/12 11:52:56;;;;;;;30.45;18.08;;;6.90;94.00;;;;;;5009465;28;20056;-90
2020/12/12 11:55:37;;;;;;;30.85;18.83;;;6.90;94.00;;;;;;4997796;28;20038;-88
2020/12/12 12:05:14;;;;;;;28.35;17.25;;;7.00;94.00;;;;;;5011298;28;20046;-87
2020/12/12 12:07:44;;;;;;;28.55;15.95;;;7.10;94.00;;;;;;5001155;28;20176;-87
2020/12/12 12:13:42;;;;;;;;;;;;;;;;;;;;;
2020/12/12 12:16:31;;;;;;;30.40;16.02;;;7.10;94.00;;;;;;5000740;28;20403;-88
2020/12/12 12:19:15;;;;;;;29.80;16.38;;;7.10;94.10;;;;;;5002558;28;20056;-88
2020/12/12 12:22:09;;;;;;;;;;;;;;;;;;;;;
2020/12/12 12:24:48;;;;;;;;;;;;;;;;;;;;;
2020/12/12 12:27:43;;;;;;;26.55;15.32;;;7.20;94.00;;;;;;5004946;28;20386;-88
2020/12/12 12:30:11;;;;;;;28.05;15.57;;;7.20;94.00;;;;;;4992265;28;20042;-88
2020/12/12 12:32:52;;;;;;;;;;;;;;;;;;;;;
2020/12/12 12:35:49;;;;;;;30.23;16.67;;;7.20;94.00;;;;;;4998335;28;20022;-88
2020/12/12 12:38:27;;;;;;;;;;;;;;;;;;;;;
2020/12/12 12:41:20;;;;;;;30.60;16.42;;;7.30;94.10;;;;;;5003846;28;20048;-89
2020/12/12 12:44:35;;;;;;;41.60;18.05;;;7.30;94.10;;;;;;5013197;28;20494;-88
2020/12/12 12:47:08;;;;;;;37.83;17.75;;;7.40;94.10;;;;;;5002325;28;20473;-86
2020/12/12 12:49:45;;;;;;;42.08;20.13;;;7.40;94.10;;;;;;5004469;28;20028;-87
2020/12/12 12:52:23;;;;;;;;;;;;;;;;;;;;;
2020/12/12 12:54:49;;;;;;;54.38;23.33;;;7.40;94.10;;;;;;5003949;28;20036;-90
2020/12/12 13:00:36;;;;;;;45.65;21.88;;;7.40;94.10;;;;;;4987223;28;20484;-87
2020/12/12 13:03:08;;;;;;;45.80;21.58;;;7.50;94.10;;;;;;5002269;28;20046;-88
2020/12/12 13:05:51;;;;;;;;;;;;;;;;;;;;;
2020/12/12 13:08:53;;;;;;;;;;;;;;;;;;;;;
2020/12/12 13:11:34;;;;;;;43.63;20.60;;;7.40;94.10;;;;;;5002448;28;20042;-87
2020/12/12 13:14:29;;;;;;;45.78;21.02;;;7.50;94.10;;;;;;5004368;28;20034;-88
2020/12/12 13:17:05;;;;;;;38.95;19.30;;;7.50;94.10;;;;;;4994219;28;20030;-88
2020/12/12 13:23:17;;;;;;;46.42;19.17;;;7.50;94.10;;;;;;4993035;28;20138;-88
2020/12/12 13:25:44;;;;;;;40.42;18.60;;;7.50;94.10;;;;;;4997569;28;20121;-88
2020/12/12 13:34:00;;;;;;;37.00;17.73;;;7.60;94.10;;;;;;4995759;28;20179;-89
2020/12/12 13:36:30;;;;;;;38.92;18.77;;;7.60;94.20;;;;;;4998695;28;20379;-89
2020/12/12 13:39:08;;;;;;;;;;;;;;;;;;;;;
2020/12/12 13:41:46;;;;;;;45.45;17.33;;;7.60;94.20;;;;;;5003203;28;20022;-87
2020/12/12 13:44:18;;;;;;;46.65;20.23;;;7.60;94.20;;;;;;4999425;28;20464;-87
2020/12/12 13:46:46;;;;;;;49.28;20.00;;;7.60;94.20;;;;;;5008571;28;20096;-88
2020/12/12 13:49:14;;;;;;;47.90;21.60;;;7.60;94.20;;;;;;5007784;28;20030;-89
2020/12/12 13:51:42;;;;;;;47.85;21.88;;;7.70;94.20;;;;;;5009462;28;20032;-86
2020/12/12 13:57:35;;;;;;;;;;;;;;;;;;;;;
2020/12/12 14:00:14;;;;;;;;;;;;;;;;;;;;;
2020/12/12 14:02:54;;;;;;;;;;;;;;;;;;;;;
2020/12/12 14:05:23;;;;;;;59.90;23.70;;;7.70;94.20;;;;;;5012052;28;20032;-87
2020/12/12 14:07:59;;;;;;;58.67;23.02;;;7.70;94.20;;;;;;4996942;28;20033;-87
2020/12/12 14:25:36;;;;;;;;;;;;;;;;;;;;;
2020/12/12 14:31:53;;;;;;;58.75;23.77;;;7.80;94.20;;;;;;4959860;28;20050;-87
2020/12/12 14:34:30;;;;;;;54.35;22.95;;;7.80;94.20;;;;;;4946297;28;20042;-90
2020/12/12 14:37:00;;;;;;;61.92;23.25;;;7.80;94.20;;;;;;4980183;28;20041;-87
2020/12/12 14:39:33;;;;;;;55.75;24.75;;;7.80;94.20;;;;;;4990430;28;20042;-86
2020/12/12 14:42:01;;;;;;;53.85;22.50;;;7.80;94.20;;;;;;5010638;28;20041;-87